sensor_id;sensor_type;location;lat;lon;timestamp;temperature;humidity
29241;DHT22;16268;49.880;8.648;2023-02-28T00:01:24;0.30;99.90
29241;DHT22;16268;49.880;8.648;2023-02-28T00:03:50;0.30;99.90
29241;DHT22;16268;49.880;8.648;2023-02-28T00:06:16;0.30;99.90
29241;DHT22;16268;49.880;8.648;2023-02-28T00:08:42;0.30;99.90
29241;DHT22;16268;49.880;8.648;2023-02-28T00:11:10;0.30;99.90
29241;DHT22;16268;49.880;8.648;2023-02-28T00:13:37;0.30;99.90
29241;DHT22;16268;49.880;8.648;2023-02-28T00:16:06;0.20;99.90
29241;DHT22;16268;49.880;8.648;2023-02-28T00:18:32;0.20;99.90
29241;DHT22;16268;49.880;8.648;2023-02-28T00:20:59;0.20;99.90
29241;DHT22;16268;49.880;8.648;2023-02-28T00:23:25;0.20;99.90
29241;DHT22;16268;49.880;8.648;2023-02-28T00:25:51;0.20;99.90
29241;DHT22;16268;49.880;8.648;2023-02-28T00:28:18;0.10;99.90
29241;DHT22;16268;49.880;8.648;2023-02-28T00:30:43;0.20;99.90
29241;DHT22;16268;49.880;8.648;2023-02-28T00:33:09;0.10;99.90
29241;DHT22;16268;49.880;8.648;2023-02-28T00:35:35;0.10;99.90
29241;DHT22;16268;49.880;8.648;2023-02-28T00:38:00;0.10;99.90
29241;DHT22;16268;49.880;8.648;2023-02-28T00:40:26;0.10;99.90
29241;DHT22;16268;49.880;8.648;2023-02-28T00:42:51;0.20;99.90
29241;DHT22;16268;49.880;8.648;2023-02-28T00:45:17;0.10;99.90
29241;DHT22;16268;49.880;8.648;2023-02-28T00:47:43;0.10;99.90
29241;DHT22;16268;49.880;8.648;2023-02-28T00:50:09;0.10;99.90
29241;DHT22;16268;49.880;8.648;2023-02-28T00:52:35;0.10;99.90
29241;DHT22;16268;49.880;8.648;2023-02-28T00:55:01;0.10;99.90
29241;DHT22;16268;49.880;8.648;2023-02-28T00:57:26;0.10;99.90
29241;DHT22;16268;49.880;8.648;2023-02-28T00:59:52;0.10;99.90
29241;DHT22;16268;49.880;8.648;2023-02-28T01:02:20;0.00;99.90
29241;DHT22;16268;49.880;8.648;2023-02-28T01:04:46;0.00;99.90
29241;DHT22;16268;49.880;8.648;2023-02-28T01:07:12;0.00;99.90
29241;DHT22;16268;49.880;8.648;2023-02-28T01:09:38;0.00;99.90
29241;DHT22;16268;49.880;8.648;2023-02-28T01:12:04;0.00;99.90
29241;DHT22;16268;49.880;8.648;2023-02-28T01:14:30;0.00;99.90
29241;DHT22;16268;49.880;8.648;2023-02-28T01:16:55;-0.10;99.90
29241;DHT22;16268;49.880;8.648;2023-02-28T01:19:21;-0.10;99.90
29241;DHT22;16268;49.880;8.648;2023-02-28T01:21:46;-0.10;99.90
29241;DHT22;16268;49.880;8.648;2023-02-28T01:24:12;-0.10;99.90
29241;DHT22;16268;49.880;8.648;2023-02-28T01:26:37;-0.10;99.90
29241;DHT22;16268;49.880;8.648;2023-02-28T01:29:03;-0.10;99.90
29241;DHT22;16268;49.880;8.648;2023-02-28T01:31:28;-0.10;99.90
29241;DHT22;16268;49.880;8.648;2023-02-28T01:33:54;-0.10;99.90
29241;DHT22;16268;49.880;8.648;2023-02-28T01:36:22;-0.10;99.90
29241;DHT22;16268;49.880;8.648;2023-02-28T01:38:48;-0.10;99.90
29241;DHT22;16268;49.880;8.648;2023-02-28T01:41:18;-0.10;99.90
29241;DHT22;16268;49.880;8.648;2023-02-28T01:46:10;-0.10;99.90
29241;DHT22;16268;49.880;8.648;2023-02-28T01:48:41;-0.10;99.90
29241;DHT22;16268;49.880;8.648;2023-02-28T01:51:11;-0.10;99.90
29241;DHT22;16268;49.880;8.648;2023-02-28T01:53:44;-0.10;99.90
29241;DHT22;16268;49.880;8.648;2023-02-28T01:56:12;-0.10;99.90
29241;DHT22;16268;49.880;8.648;2023-02-28T01:58:47;-0.20;99.90
29241;DHT22;16268;49.880;8.648;2023-02-28T02:01:12;-0.20;99.90
29241;DHT22;16268;49.880;8.648;2023-02-28T02:03:51;-0.20;99.90
29241;DHT22;16268;49.880;8.648;2023-02-28T02:06:25;-0.20;99.90
29241;DHT22;16268;49.880;8.648;2023-02-28T02:08:52;-0.20;99.90
29241;DHT22;16268;49.880;8.648;2023-02-28T02:11:20;-0.20;99.90
29241;DHT22;16268;49.880;8.648;2023-02-28T02:22:27;-0.30;99.90
29241;DHT22;16268;49.880;8.648;2023-02-28T02:25:03;-0.30;99.90
29241;DHT22;16268;49.880;8.648;2023-02-28T02:27:56;-0.30;99.90
29241;DHT22;16268;49.880;8.648;2023-02-28T02:39:10;-0.40;99.90
29241;DHT22;16268;49.880;8.648;2023-02-28T02:41:41;-0.40;99.90
29241;DHT22;16268;49.880;8.648;2023-02-28T02:44:47;-0.40;99.90
29241;DHT22;16268;49.880;8.648;2023-02-28T02:47:11;-0.40;99.90
29241;DHT22;16268;49.880;8.648;2023-02-28T02:49:42;-0.40;99.90
29241;DHT22;16268;49.880;8.648;2023-02-28T02:52:10;-0.40;99.90
29241;DHT22;16268;49.880;8.648;2023-02-28T02:54:40;-0.40;99.90
29241;DHT22;16268;49.880;8.648;2023-02-28T02:57:25;-0.40;99.90
29241;DHT22;16268;49.880;8.648;2023-02-28T02:59:55;-0.40;99.90
29241;DHT22;16268;49.880;8.648;2023-02-28T03:02:22;-0.50;99.90
29241;DHT22;16268;49.880;8.648;2023-02-28T03:04:52;-0.50;99.90
29241;DHT22;16268;49.880;8.648;2023-02-28T03:07:19;-0.50;99.90
29241;DHT22;16268;49.880;8.648;2023-02-28T03:09:52;-0.50;99.90
29241;DHT22;16268;49.880;8.648;2023-02-28T03:12:18;-0.50;99.90
29241;DHT22;16268;49.880;8.648;2023-02-28T03:15:08;-0.50;99.90
29241;DHT22;16268;49.880;8.648;2023-02-28T03:17:49;-0.50;99.90
29241;DHT22;16268;49.880;8.648;2023-02-28T03:23:19;-0.50;99.90
29241;DHT22;16268;49.880;8.648;2023-02-28T03:26:02;-0.50;99.90
29241;DHT22;16268;49.880;8.648;2023-02-28T03:33:39;-0.50;99.90
29241;DHT22;16268;49.880;8.648;2023-02-28T03:36:15;-0.50;99.90
29241;DHT22;16268;49.880;8.648;2023-02-28T03:39:02;-0.60;99.90
29241;DHT22;16268;49.880;8.648;2023-02-28T03:41:35;-0.60;99.90
29241;DHT22;16268;49.880;8.648;2023-02-28T03:44:09;-0.60;99.90
29241;DHT22;16268;49.880;8.648;2023-02-28T03:46:44;-0.60;99.90
29241;DHT22;16268;49.880;8.648;2023-02-28T03:49:18;-0.60;99.90
29241;DHT22;16268;49.880;8.648;2023-02-28T03:51:46;-0.60;99.90
29241;DHT22;16268;49.880;8.648;2023-02-28T03:54:17;-0.60;99.90
29241;DHT22;16268;49.880;8.648;2023-02-28T03:56:51;-0.70;99.90
29241;DHT22;16268;49.880;8.648;2023-02-28T03:59:19;-0.70;99.90
29241;DHT22;16268;49.880;8.648;2023-02-28T04:01:48;-0.70;99.90
29241;DHT22;16268;49.880;8.648;2023-02-28T04:04:14;-0.70;99.90
29241;DHT22;16268;49.880;8.648;2023-02-28T04:06:41;-0.70;99.90
29241;DHT22;16268;49.880;8.648;2023-02-28T04:09:09;-0.60;99.90
29241;DHT22;16268;49.880;8.648;2023-02-28T04:14:01;-0.60;99.90
29241;DHT22;16268;49.880;8.648;2023-02-28T04:16:27;-0.60;99.90
29241;DHT22;16268;49.880;8.648;2023-02-28T04:18:53;-0.70;99.90
29241;DHT22;16268;49.880;8.648;2023-02-28T04:21:19;-0.60;99.90
29241;DHT22;16268;49.880;8.648;2023-02-28T04:23:47;-0.60;99.90
29241;DHT22;16268;49.880;8.648;2023-02-28T04:26:13;-0.60;99.90
29241;DHT22;16268;49.880;8.648;2023-02-28T04:28:38;-0.60;99.90
29241;DHT22;16268;49.880;8.648;2023-02-28T04:31:05;-0.50;99.90
29241;DHT22;16268;49.880;8.648;2023-02-28T04:33:32;-0.50;99.90
29241;DHT22;16268;49.880;8.648;2023-02-28T04:35:59;-0.50;99.90
29241;DHT22;16268;49.880;8.648;2023-02-28T04:38:25;-0.40;99.90
29241;DHT22;16268;49.880;8.648;2023-02-28T04:40:50;-0.50;99.90
29241;DHT22;16268;49.880;8.648;2023-02-28T04:43:16;-0.40;99.90
29241;DHT22;16268;49.880;8.648;2023-02-28T04:45:42;-0.50;99.90
29241;DHT22;16268;49.880;8.648;2023-02-28T04:48:07;-0.50;99.90
29241;DHT22;16268;49.880;8.648;2023-02-28T04:50:33;-0.50;99.90
29241;DHT22;16268;49.880;8.648;2023-02-28T04:52:58;-0.50;99.90
29241;DHT22;16268;49.880;8.648;2023-02-28T04:55:24;-0.60;99.90
29241;DHT22;16268;49.880;8.648;2023-02-28T04:57:49;-0.60;99.90
29241;DHT22;16268;49.880;8.648;2023-02-28T05:00:15;-0.60;99.90
29241;DHT22;16268;49.880;8.648;2023-02-28T05:02:42;-0.60;99.90
29241;DHT22;16268;49.880;8.648;2023-02-28T05:05:07;-0.70;99.90
29241;DHT22;16268;49.880;8.648;2023-02-28T05:07:33;-0.70;99.90
29241;DHT22;16268;49.880;8.648;2023-02-28T05:09:59;-0.80;99.90
29241;DHT22;16268;49.880;8.648;2023-02-28T05:12:24;-0.70;99.90
29241;DHT22;16268;49.880;8.648;2023-02-28T05:14:50;-0.80;99.90
29241;DHT22;16268;49.880;8.648;2023-02-28T05:17:15;-0.80;99.90
29241;DHT22;16268;49.880;8.648;2023-02-28T05:19:42;-0.90;99.90
29241;DHT22;16268;49.880;8.648;2023-02-28T05:22:13;-0.90;99.90
29241;DHT22;16268;49.880;8.648;2023-02-28T05:24:39;-0.90;99.90
29241;DHT22;16268;49.880;8.648;2023-02-28T05:27:05;-0.90;99.90
29241;DHT22;16268;49.880;8.648;2023-02-28T05:29:30;-0.90;99.90
29241;DHT22;16268;49.880;8.648;2023-02-28T05:31:56;-0.90;99.90
29241;DHT22;16268;49.880;8.648;2023-02-28T05:34:21;-0.90;99.90
29241;DHT22;16268;49.880;8.648;2023-02-28T05:36:47;-0.90;99.90
29241;DHT22;16268;49.880;8.648;2023-02-28T05:39:13;-0.90;99.90
29241;DHT22;16268;49.880;8.648;2023-02-28T05:41:40;-0.90;99.90
29241;DHT22;16268;49.880;8.648;2023-02-28T05:44:06;-0.90;99.90
29241;DHT22;16268;49.880;8.648;2023-02-28T05:46:32;-1.00;99.90
29241;DHT22;16268;49.880;8.648;2023-02-28T05:48:57;-0.90;99.90
29241;DHT22;16268;49.880;8.648;2023-02-28T05:51:25;-1.00;99.90
29241;DHT22;16268;49.880;8.648;2023-02-28T05:53:51;-1.00;99.90
29241;DHT22;16268;49.880;8.648;2023-02-28T05:56:16;-1.00;99.90
29241;DHT22;16268;49.880;8.648;2023-02-28T05:58:42;-1.00;99.90
29241;DHT22;16268;49.880;8.648;2023-02-28T06:01:44;-1.00;99.90
29241;DHT22;16268;49.880;8.648;2023-02-28T06:04:17;-0.90;99.90
29241;DHT22;16268;49.880;8.648;2023-02-28T06:06:45;-1.00;99.90
29241;DHT22;16268;49.880;8.648;2023-02-28T06:09:11;-0.90;99.90
29241;DHT22;16268;49.880;8.648;2023-02-28T06:11:37;-1.00;99.90
29241;DHT22;16268;49.880;8.648;2023-02-28T06:14:03;-1.00;99.90
29241;DHT22;16268;49.880;8.648;2023-02-28T06:16:31;-1.00;99.90
29241;DHT22;16268;49.880;8.648;2023-02-28T06:18:58;-1.00;99.90
29241;DHT22;16268;49.880;8.648;2023-02-28T06:21:24;-1.00;99.90
29241;DHT22;16268;49.880;8.648;2023-02-28T06:23:50;-1.00;99.90
29241;DHT22;16268;49.880;8.648;2023-02-28T06:26:16;-1.00;99.90
29241;DHT22;16268;49.880;8.648;2023-02-28T06:28:42;-1.00;99.90
29241;DHT22;16268;49.880;8.648;2023-02-28T06:31:09;-1.00;99.90
29241;DHT22;16268;49.880;8.648;2023-02-28T06:33:36;-1.00;99.90
29241;DHT22;16268;49.880;8.648;2023-02-28T06:36:02;-1.00;99.90
29241;DHT22;16268;49.880;8.648;2023-02-28T06:38:27;-0.90;99.90
29241;DHT22;16268;49.880;8.648;2023-02-28T06:40:57;-0.90;99.90
29241;DHT22;16268;49.880;8.648;2023-02-28T06:43:24;-0.90;99.90
29241;DHT22;16268;49.880;8.648;2023-02-28T06:45:50;-0.90;99.90
29241;DHT22;16268;49.880;8.648;2023-02-28T06:48:16;-0.90;99.90
29241;DHT22;16268;49.880;8.648;2023-02-28T06:50:42;-0.90;99.90
29241;DHT22;16268;49.880;8.648;2023-02-28T06:53:07;-0.80;99.90
29241;DHT22;16268;49.880;8.648;2023-02-28T06:55:33;-0.80;99.90
29241;DHT22;16268;49.880;8.648;2023-02-28T06:57:58;-0.70;99.90
29241;DHT22;16268;49.880;8.648;2023-02-28T07:00:24;-0.70;99.90
29241;DHT22;16268;49.880;8.648;2023-02-28T07:02:50;-0.70;99.90
29241;DHT22;16268;49.880;8.648;2023-02-28T07:05:16;-0.60;99.90
29241;DHT22;16268;49.880;8.648;2023-02-28T07:07:41;-0.60;99.90
29241;DHT22;16268;49.880;8.648;2023-02-28T07:10:12;-0.50;99.90
29241;DHT22;16268;49.880;8.648;2023-02-28T07:12:39;-0.50;99.90
29241;DHT22;16268;49.880;8.648;2023-02-28T07:15:05;-0.50;99.90
29241;DHT22;16268;49.880;8.648;2023-02-28T07:17:31;-0.40;99.90
29241;DHT22;16268;49.880;8.648;2023-02-28T07:19:57;-0.40;99.90
29241;DHT22;16268;49.880;8.648;2023-02-28T07:22:22;-0.40;99.90
29241;DHT22;16268;49.880;8.648;2023-02-28T07:24:48;-0.30;99.90
29241;DHT22;16268;49.880;8.648;2023-02-28T07:27:14;-0.20;99.90
29241;DHT22;16268;49.880;8.648;2023-02-28T07:29:49;-0.10;99.90
29241;DHT22;16268;49.880;8.648;2023-02-28T07:32:15;-0.10;99.90
29241;DHT22;16268;49.880;8.648;2023-02-28T07:34:41;0.00;99.90
29241;DHT22;16268;49.880;8.648;2023-02-28T07:37:06;0.10;99.90
29241;DHT22;16268;49.880;8.648;2023-02-28T07:39:32;0.20;99.90
29241;DHT22;16268;49.880;8.648;2023-02-28T07:41:57;0.20;99.90
29241;DHT22;16268;49.880;8.648;2023-02-28T07:44:25;0.30;99.90
29241;DHT22;16268;49.880;8.648;2023-02-28T07:46:51;0.40;99.90
29241;DHT22;16268;49.880;8.648;2023-02-28T07:49:18;0.40;99.90
29241;DHT22;16268;49.880;8.648;2023-02-28T07:51:43;0.50;99.90
29241;DHT22;16268;49.880;8.648;2023-02-28T07:54:09;0.60;99.90
29241;DHT22;16268;49.880;8.648;2023-02-28T07:56:34;0.70;99.90
29241;DHT22;16268;49.880;8.648;2023-02-28T07:59:00;0.70;99.90
29241;DHT22;16268;49.880;8.648;2023-02-28T08:01:26;0.80;99.90
29241;DHT22;16268;49.880;8.648;2023-02-28T08:03:52;0.90;99.90
29241;DHT22;16268;49.880;8.648;2023-02-28T08:06:21;1.00;99.90
29241;DHT22;16268;49.880;8.648;2023-02-28T08:08:47;1.00;99.90
29241;DHT22;16268;49.880;8.648;2023-02-28T08:11:14;1.10;99.90
29241;DHT22;16268;49.880;8.648;2023-02-28T08:13:40;1.10;99.90
29241;DHT22;16268;49.880;8.648;2023-02-28T08:16:07;1.20;99.90
29241;DHT22;16268;49.880;8.648;2023-02-28T08:18:33;1.30;99.90
29241;DHT22;16268;49.880;8.648;2023-02-28T08:20:59;1.30;99.90
29241;DHT22;16268;49.880;8.648;2023-02-28T08:23:25;1.30;99.90
29241;DHT22;16268;49.880;8.648;2023-02-28T08:25:54;1.40;99.90
29241;DHT22;16268;49.880;8.648;2023-02-28T08:28:21;1.50;99.90
29241;DHT22;16268;49.880;8.648;2023-02-28T08:30:46;1.60;99.90
29241;DHT22;16268;49.880;8.648;2023-02-28T08:33:12;1.70;99.90
29241;DHT22;16268;49.880;8.648;2023-02-28T08:35:37;1.80;99.90
29241;DHT22;16268;49.880;8.648;2023-02-28T08:38:03;2.00;99.90
29241;DHT22;16268;49.880;8.648;2023-02-28T08:40:28;2.00;99.90
29241;DHT22;16268;49.880;8.648;2023-02-28T08:42:54;2.10;99.90
29241;DHT22;16268;49.880;8.648;2023-02-28T08:45:19;2.40;99.90
29241;DHT22;16268;49.880;8.648;2023-02-28T08:47:45;2.60;99.90
29241;DHT22;16268;49.880;8.648;2023-02-28T08:50:10;2.90;99.90
29241;DHT22;16268;49.880;8.648;2023-02-28T08:52:36;3.30;99.90
29241;DHT22;16268;49.880;8.648;2023-02-28T08:55:03;3.50;99.90
29241;DHT22;16268;49.880;8.648;2023-02-28T08:57:29;3.40;99.90
29241;DHT22;16268;49.880;8.648;2023-02-28T08:59:55;3.70;99.90
29241;DHT22;16268;49.880;8.648;2023-02-28T09:02:20;4.00;99.90
29241;DHT22;16268;49.880;8.648;2023-02-28T09:04:46;4.20;99.90
29241;DHT22;16268;49.880;8.648;2023-02-28T09:07:12;4.00;99.90
29241;DHT22;16268;49.880;8.648;2023-02-28T09:09:37;3.90;99.90
29241;DHT22;16268;49.880;8.648;2023-02-28T09:12:20;4.10;99.90
29241;DHT22;16268;49.880;8.648;2023-02-28T09:14:45;4.40;99.90
29241;DHT22;16268;49.880;8.648;2023-02-28T09:17:11;4.40;99.90
29241;DHT22;16268;49.880;8.648;2023-02-28T09:19:36;4.70;99.90
29241;DHT22;16268;49.880;8.648;2023-02-28T09:22:02;4.70;99.90
29241;DHT22;16268;49.880;8.648;2023-02-28T09:24:27;5.00;99.90
29241;DHT22;16268;49.880;8.648;2023-02-28T09:26:53;5.00;99.90
29241;DHT22;16268;49.880;8.648;2023-02-28T09:29:18;4.70;99.90
29241;DHT22;16268;49.880;8.648;2023-02-28T09:31:49;4.70;99.90
29241;DHT22;16268;49.880;8.648;2023-02-28T09:34:15;5.00;99.90
29241;DHT22;16268;49.880;8.648;2023-02-28T09:36:42;5.40;99.90
29241;DHT22;16268;49.880;8.648;2023-02-28T09:39:08;5.70;99.60
29241;DHT22;16268;49.880;8.648;2023-02-28T09:41:54;5.90;98.20
29241;DHT22;16268;49.880;8.648;2023-02-28T09:44:26;5.50;97.70
29241;DHT22;16268;49.880;8.648;2023-02-28T09:46:58;5.60;99.00
29241;DHT22;16268;49.880;8.648;2023-02-28T09:49:33;5.70;97.20
29241;DHT22;16268;49.880;8.648;2023-02-28T09:52:03;5.90;97.00
29241;DHT22;16268;49.880;8.648;2023-02-28T09:54:31;5.60;96.90
29241;DHT22;16268;49.880;8.648;2023-02-28T09:57:29;5.90;97.70
29241;DHT22;16268;49.880;8.648;2023-02-28T10:05:36;6.30;94.60
29241;DHT22;16268;49.880;8.648;2023-02-28T10:08:13;6.30;94.10
29241;DHT22;16268;49.880;8.648;2023-02-28T10:10:48;6.20;93.30
29241;DHT22;16268;49.880;8.648;2023-02-28T10:13:20;6.10;93.20
29241;DHT22;16268;49.880;8.648;2023-02-28T10:15:51;5.90;92.70
29241;DHT22;16268;49.880;8.648;2023-02-28T10:18:23;5.70;93.70
29241;DHT22;16268;49.880;8.648;2023-02-28T10:20:50;5.90;93.40
29241;DHT22;16268;49.880;8.648;2023-02-28T10:23:25;5.70;93.40
29241;DHT22;16268;49.880;8.648;2023-02-28T10:26:00;5.80;93.60
29241;DHT22;16268;49.880;8.648;2023-02-28T10:28:29;5.60;92.90
29241;DHT22;16268;49.880;8.648;2023-02-28T10:30:56;5.10;94.00
29241;DHT22;16268;49.880;8.648;2023-02-28T10:33:33;4.80;94.40
29241;DHT22;16268;49.880;8.648;2023-02-28T10:36:00;4.80;95.00
29241;DHT22;16268;49.880;8.648;2023-02-28T10:38:28;4.90;94.70
29241;DHT22;16268;49.880;8.648;2023-02-28T10:41:09;4.70;94.40
29241;DHT22;16268;49.880;8.648;2023-02-28T10:43:35;4.70;94.90
29241;DHT22;16268;49.880;8.648;2023-02-28T10:46:11;4.80;95.20
29241;DHT22;16268;49.880;8.648;2023-02-28T10:48:43;4.80;94.70
29241;DHT22;16268;49.880;8.648;2023-02-28T10:51:15;5.10;94.50
29241;DHT22;16268;49.880;8.648;2023-02-28T10:56:21;5.20;94.70
29241;DHT22;16268;49.880;8.648;2023-02-28T10:59:05;5.10;94.10
29241;DHT22;16268;49.880;8.648;2023-02-28T11:01:47;5.20;94.60
29241;DHT22;16268;49.880;8.648;2023-02-28T11:09:45;5.50;93.60
29241;DHT22;16268;49.880;8.648;2023-02-28T11:12:39;5.40;93.20
29241;DHT22;16268;49.880;8.648;2023-02-28T11:15:25;5.50;93.20
29241;DHT22;16268;49.880;8.648;2023-02-28T11:18:02;5.40;93.20
29241;DHT22;16268;49.880;8.648;2023-02-28T11:20:33;5.50;93.50
29241;DHT22;16268;49.880;8.648;2023-02-28T11:23:01;5.80;93.50
29241;DHT22;16268;49.880;8.648;2023-02-28T11:25:32;5.90;92.50
29241;DHT22;16268;49.880;8.648;2023-02-28T11:28:00;6.00;93.10
29241;DHT22;16268;49.880;8.648;2023-02-28T11:30:39;6.00;92.10
29241;DHT22;16268;49.880;8.648;2023-02-28T11:33:28;6.00;92.10
29241;DHT22;16268;49.880;8.648;2023-02-28T11:36:02;5.80;92.00
29241;DHT22;16268;49.880;8.648;2023-02-28T11:38:28;6.00;92.60
29241;DHT22;16268;49.880;8.648;2023-02-28T11:41:10;6.10;92.60
29241;DHT22;16268;49.880;8.648;2023-02-28T11:43:59;6.10;92.10
29241;DHT22;16268;49.880;8.648;2023-02-28T11:46:40;5.90;92.10
29241;DHT22;16268;49.880;8.648;2023-02-28T11:54:41;5.90;93.00
29241;DHT22;16268;49.880;8.648;2023-02-28T12:02:28;5.80;91.50
29241;DHT22;16268;49.880;8.648;2023-02-28T12:13:34;5.40;92.40
29241;DHT22;16268;49.880;8.648;2023-02-28T12:19:03;5.30;92.40
29241;DHT22;16268;49.880;8.648;2023-02-28T12:22:16;5.30;92.40
29241;DHT22;16268;49.880;8.648;2023-02-28T12:27:21;5.30;92.60
29241;DHT22;16268;49.880;8.648;2023-02-28T12:29:56;5.30;91.90
29241;DHT22;16268;49.880;8.648;2023-02-28T12:32:39;5.30;92.30
29241;DHT22;16268;49.880;8.648;2023-02-28T12:37:38;5.40;92.70
29241;DHT22;16268;49.880;8.648;2023-02-28T12:40:28;5.30;92.90
29241;DHT22;16268;49.880;8.648;2023-02-28T12:43:01;5.20;93.50
29241;DHT22;16268;49.880;8.648;2023-02-28T12:45:47;5.30;93.50
29241;DHT22;16268;49.880;8.648;2023-02-28T12:48:50;5.50;94.10
29241;DHT22;16268;49.880;8.648;2023-02-28T12:51:18;5.60;93.30
29241;DHT22;16268;49.880;8.648;2023-02-28T12:54:14;5.60;93.50
29241;DHT22;16268;49.880;8.648;2023-02-28T12:59:26;5.50;92.40
29241;DHT22;16268;49.880;8.648;2023-02-28T13:02:02;5.50;92.60
29241;DHT22;16268;49.880;8.648;2023-02-28T13:07:36;5.40;93.00
29241;DHT22;16268;49.880;8.648;2023-02-28T13:10:07;5.30;93.50
29241;DHT22;16268;49.880;8.648;2023-02-28T13:12:34;5.20;93.60
29241;DHT22;16268;49.880;8.648;2023-02-28T13:15:21;5.20;93.90
29241;DHT22;16268;49.880;8.648;2023-02-28T13:17:51;5.30;94.00
29241;DHT22;16268;49.880;8.648;2023-02-28T13:20:27;5.40;94.40
29241;DHT22;16268;49.880;8.648;2023-02-28T13:22:54;5.50;93.40
29241;DHT22;16268;49.880;8.648;2023-02-28T13:27:49;5.60;93.00
29241;DHT22;16268;49.880;8.648;2023-02-28T13:33:34;5.60;92.50
29241;DHT22;16268;49.880;8.648;2023-02-28T13:36:22;5.60;92.60
29241;DHT22;16268;49.880;8.648;2023-02-28T13:38:56;5.70;92.60
29241;DHT22;16268;49.880;8.648;2023-02-28T13:46:28;5.80;92.80
29241;DHT22;16268;49.880;8.648;2023-02-28T13:48:54;5.90;92.20
29241;DHT22;16268;49.880;8.648;2023-02-28T13:51:39;5.90;92.30
29241;DHT22;16268;49.880;8.648;2023-02-28T13:57:20;6.00;92.40
29241;DHT22;16268;49.880;8.648;2023-02-28T14:05:43;5.80;92.20
29241;DHT22;16268;49.880;8.648;2023-02-28T14:08:21;5.90;91.70
29241;DHT22;16268;49.880;8.648;2023-02-28T14:11:03;5.90;91.70
29241;DHT22;16268;49.880;8.648;2023-02-28T14:13:42;5.90;91.30
29241;DHT22;16268;49.880;8.648;2023-02-28T14:19:21;5.90;91.20
29241;DHT22;16268;49.880;8.648;2023-02-28T14:22:34;6.00;91.40
29241;DHT22;16268;49.880;8.648;2023-02-28T14:25:18;6.00;91.10
29241;DHT22;16268;49.880;8.648;2023-02-28T14:35:52;5.90;91.30
29241;DHT22;16268;49.880;8.648;2023-02-28T14:38:28;5.90;91.50
29241;DHT22;16268;49.880;8.648;2023-02-28T14:40:57;5.90;91.70
29241;DHT22;16268;49.880;8.648;2023-02-28T14:43:26;6.00;92.10
29241;DHT22;16268;49.880;8.648;2023-02-28T14:45:55;6.00;91.30
29241;DHT22;16268;49.880;8.648;2023-02-28T14:48:21;5.90;91.30
29241;DHT22;16268;49.880;8.648;2023-02-28T14:50:59;5.80;91.30
29241;DHT22;16268;49.880;8.648;2023-02-28T14:53:29;5.80;91.50
29241;DHT22;16268;49.880;8.648;2023-02-28T14:55:55;5.90;91.70
29241;DHT22;16268;49.880;8.648;2023-02-28T14:58:29;5.90;91.90
29241;DHT22;16268;49.880;8.648;2023-02-28T15:00:57;6.00;92.00
29241;DHT22;16268;49.880;8.648;2023-02-28T15:05:57;6.10;91.60
29241;DHT22;16268;49.880;8.648;2023-02-28T15:08:23;6.10;91.20
29241;DHT22;16268;49.880;8.648;2023-02-28T15:10:56;6.10;91.70
29241;DHT22;16268;49.880;8.648;2023-02-28T15:13:25;6.10;91.40
29241;DHT22;16268;49.880;8.648;2023-02-28T15:16:46;6.10;91.40
29241;DHT22;16268;49.880;8.648;2023-02-28T15:18:50;6.00;91.50
29241;DHT22;16268;49.880;8.648;2023-02-28T15:21:23;6.00;91.70
29241;DHT22;16268;49.880;8.648;2023-02-28T15:24:00;6.00;91.50
29241;DHT22;16268;49.880;8.648;2023-02-28T15:26:32;6.00;92.00
29241;DHT22;16268;49.880;8.648;2023-02-28T15:29:01;6.10;91.90
29241;DHT22;16268;49.880;8.648;2023-02-28T15:31:43;6.00;91.80
29241;DHT22;16268;49.880;8.648;2023-02-28T15:34:26;6.00;91.90
29241;DHT22;16268;49.880;8.648;2023-02-28T15:36:52;6.00;91.90
29241;DHT22;16268;49.880;8.648;2023-02-28T15:39:24;6.00;92.00
29241;DHT22;16268;49.880;8.648;2023-02-28T15:41:50;6.10;91.80
29241;DHT22;16268;49.880;8.648;2023-02-28T15:44:28;6.10;91.40
29241;DHT22;16268;49.880;8.648;2023-02-28T15:47:03;6.10;91.60
29241;DHT22;16268;49.880;8.648;2023-02-28T15:49:40;6.10;91.40
29241;DHT22;16268;49.880;8.648;2023-02-28T15:52:14;6.10;91.70
29241;DHT22;16268;49.880;8.648;2023-02-28T15:54:41;6.10;92.10
29241;DHT22;16268;49.880;8.648;2023-02-28T15:57:13;6.10;92.40
29241;DHT22;16268;49.880;8.648;2023-02-28T15:59:49;6.00;92.50
29241;DHT22;16268;49.880;8.648;2023-02-28T16:02:18;6.00;92.70
29241;DHT22;16268;49.880;8.648;2023-02-28T16:05:23;6.00;92.60
29241;DHT22;16268;49.880;8.648;2023-02-28T16:07:54;6.10;92.70
29241;DHT22;16268;49.880;8.648;2023-02-28T16:10:24;6.10;92.60
29241;DHT22;16268;49.880;8.648;2023-02-28T16:12:55;6.10;92.80
29241;DHT22;16268;49.880;8.648;2023-02-28T16:15:27;5.90;92.90
29241;DHT22;16268;49.880;8.648;2023-02-28T16:17:55;5.90;92.90
29241;DHT22;16268;49.880;8.648;2023-02-28T16:20:26;5.90;93.20
29241;DHT22;16268;49.880;8.648;2023-02-28T16:22:52;5.90;93.00
29241;DHT22;16268;49.880;8.648;2023-02-28T16:25:22;5.80;92.80
29241;DHT22;16268;49.880;8.648;2023-02-28T16:27:50;5.90;93.00
29241;DHT22;16268;49.880;8.648;2023-02-28T16:30:22;5.80;92.80
29241;DHT22;16268;49.880;8.648;2023-02-28T16:32:49;5.80;93.00
29241;DHT22;16268;49.880;8.648;2023-02-28T16:35:15;5.80;92.80
29241;DHT22;16268;49.880;8.648;2023-02-28T16:37:43;5.80;92.90
29241;DHT22;16268;49.880;8.648;2023-02-28T16:40:15;5.70;93.20
29241;DHT22;16268;49.880;8.648;2023-02-28T16:42:42;5.60;93.10
29241;DHT22;16268;49.880;8.648;2023-02-28T16:45:21;5.60;93.50
29241;DHT22;16268;49.880;8.648;2023-02-28T16:47:47;5.50;93.70
29241;DHT22;16268;49.880;8.648;2023-02-28T16:50:33;5.50;94.10
29241;DHT22;16268;49.880;8.648;2023-02-28T16:52:59;5.50;94.00
29241;DHT22;16268;49.880;8.648;2023-02-28T16:55:26;5.40;94.30
29241;DHT22;16268;49.880;8.648;2023-02-28T16:57:57;5.40;94.70
29241;DHT22;16268;49.880;8.648;2023-02-28T17:00:23;5.30;95.30
29241;DHT22;16268;49.880;8.648;2023-02-28T17:02:50;5.30;95.80
29241;DHT22;16268;49.880;8.648;2023-02-28T17:05:16;5.20;96.20
29241;DHT22;16268;49.880;8.648;2023-02-28T17:07:42;5.20;96.60
29241;DHT22;16268;49.880;8.648;2023-02-28T17:10:16;5.10;97.20
29241;DHT22;16268;49.880;8.648;2023-02-28T17:12:42;5.10;97.50
29241;DHT22;16268;49.880;8.648;2023-02-28T17:15:09;4.90;97.70
29241;DHT22;16268;49.880;8.648;2023-02-28T17:17:35;4.80;98.30
29241;DHT22;16268;49.880;8.648;2023-02-28T17:20:02;4.80;98.50
29241;DHT22;16268;49.880;8.648;2023-02-28T17:22:28;4.70;98.90
29241;DHT22;16268;49.880;8.648;2023-02-28T17:24:53;4.70;99.20
29241;DHT22;16268;49.880;8.648;2023-02-28T17:27:23;4.60;99.80
29241;DHT22;16268;49.880;8.648;2023-02-28T17:29:48;4.60;99.80
29241;DHT22;16268;49.880;8.648;2023-02-28T17:32:14;4.50;99.90
29241;DHT22;16268;49.880;8.648;2023-02-28T17:34:39;4.50;99.90
29241;DHT22;16268;49.880;8.648;2023-02-28T17:37:05;4.50;99.90
29241;DHT22;16268;49.880;8.648;2023-02-28T17:39:30;4.40;99.90
29241;DHT22;16268;49.880;8.648;2023-02-28T17:41:56;4.40;99.90
29241;DHT22;16268;49.880;8.648;2023-02-28T17:44:23;4.30;99.90
29241;DHT22;16268;49.880;8.648;2023-02-28T17:46:49;4.30;99.90
29241;DHT22;16268;49.880;8.648;2023-02-28T17:49:16;4.30;99.90